Aviation Digital Data Service (ADDS)

Output produced by METARs form (0326 UTC 16 December 2017)
found at http://www.aviationweather.gov/adds/metars/
 
KMDT 160256Z 20005KT 10SM BKN055 M04/M06 A2995 RMK AO2 SLP147 T10441061 53007
KMDT 160156Z 00000KT 10SM BKN065 M06/M07 A2994 RMK AO2 SLP143 T10611072
KMDT 160056Z 00000KT 8SM BR BKN060 OVC100 M05/M07 A2994 RMK AO2 SLP143 T10501067
KMDT 152356Z 00000KT 10SM OVC100 M04/M06 A2993 RMK AO2 SLP140 60003 T10391061 11028 21039 53005
KMDT 152313Z 23004KT 10SM BKN014 OVC100 M04/M06 A2992 RMK AO2 T10391056
KMDT 152256Z 22004KT 10SM BKN015 OVC100 M03/M06 A2992 RMK AO2 SLP137 T10331056
KMDT 152156Z 00000KT 8SM FEW009 BKN017 OVC100 M04/M06 A2991 RMK AO2 SLP133 T10391056
KMDT 152100Z 00000KT 4SM BR BKN009 OVC032 M03/M06 A2991 RMK AO2 T10331056
KMDT 152056Z 00000KT 4SM BR OVC032 M03/M06 A2991 RMK AO2 SNE55 SLP134 P0001 60003 T10331056 56015
KMDT 152003Z 11003KT 3/4SM R13/4500V6000FT -SN BR OVC015 M03/M05 A2992 RMK AO2 P0001 T10331050
KMDT 151956Z 12003KT 1 1/2SM R13/4500VP6000FT -SN BR BKN014 OVC024 M04/M05 A2992 RMK AO2 SLP136 P0002 T10391050
KMDT 151925Z 13003KT 1 1/2SM R13/4000V5000FT -SN BR BKN014 OVC024 M03/M06 A2993 RMK AO2 P0001 T10331056
KMDT 151859Z 18004KT 1 1/2SM R13/5500VP6000FT -SN BKN024 OVC050 M03/M07 A2993 RMK AO2 P0000 T10331072
KMDT 151856Z 13005KT 3SM -SN BKN029 OVC050 M03/M08 A2993 RMK AO2 SNB53 SLP140 P0000 T10331078
KMDT 151756Z 00000KT 10SM OVC055 M03/M09 A2996 RMK AO2 SLP150 T10281094 11028 21050 58039
KMDT 151656Z 16007KT 10SM BKN042 OVC050 M03/M10 A2999 RMK AO2 SLP162 T10281100
KMDT 151556Z 17005KT 10SM OVC043 M03/M11 A3004 RMK AO2 SLP177 T10331106
KMDT 151456Z 00000KT 10SM OVC046 M04/M10 A3007 RMK AO2 SLP189 T10391100 55005
KMDT 151356Z 16003KT 10SM OVC044 M04/M10 A3007 RMK AO2 SLP188 T10441100
KMDT 151256Z 00000KT 10SM OVC046 M04/M11 A3008 RMK AO2 SLP192 T10441106
KMDT 151156Z 00000KT 10SM OVC045 M05/M11 A3009 RMK AO2 SLP194 T10501111 11044 21078 55000
KMDT 151056Z 00000KT 10SM BKN043 BKN140 M05/M11 A3009 RMK AO2 SLP193 T10501111
KMDT 150956Z 11004KT 10SM SCT130 BKN250 M07/M12 A3008 RMK AO2 SLP192 T10671117
KMDT 150856Z 00000KT 10SM BKN140 BKN250 M07/M10 A3009 RMK AO2 SLP194 T10671100 58002
KMDT 150756Z 00000KT 10SM SCT150 SCT250 M07/M11 A3010 RMK AO2 SLP197 T10671111
KMDT 150656Z 34004KT 10SM FEW150 SCT250 M07/M11 A3009 RMK AO2 SLP196 T10671111
KMDT 150556Z 36003KT 10SM SCT150 BKN250 M06/M10 A3009 RMK AO2 SLP196 T10611100 11022 21067 58001
KMDT 150456Z 03003KT 10SM FEW170 BKN250 M06/M11 A3010 RMK AO2 SLP199 T10561111 400061067
KMDT 150356Z 00000KT 10SM BKN180 M04/M13 A3011 RMK AO2 SLP202 T10441128
KMDT 150256Z 34006KT 10SM BKN200 M04/M13 A3010 RMK AO2 SLP197 T10391133 51022
KMDT 150156Z 33007KT 10SM OVC200 M03/M13 A3009 RMK AO2 SLP195 T10331133
KMDT 150056Z 32013KT 10SM BKN200 M03/M13 A3007 RMK AO2 SLP186 T10281133
KMDT 142356Z 32013KT 10SM BKN200 M02/M13 A3003 RMK AO2 SLP175 T10221128 10006 21022 51031
KMDT 142256Z 30011KT 10SM SCT200 M02/M12 A3001 RMK AO2 SLP167 T10171117
KMDT 142156Z 30009KT 10SM CLR M02/M11 A2998 RMK AO2 SLP155 T10171111
KMDT 142056Z 30013KT 10SM CLR M01/M12 A2994 RMK AO2 SLP142 T10061122 53024
KMDT 141956Z 29017G20KT 10SM FEW050 01/M11 A2991 RMK AO2 SLP133 T00061106
KMDT 141856Z 30012KT 10SM SCT045 M01/M10 A2989 RMK AO2 SLP127 T10061100
KMDT 141756Z 30011KT 10SM SCT045 01/M08 A2987 RMK AO2 PK WND 32027/1657 SLP118 60000 T00061083 10006 21044 53026
KMDT 141656Z 31015G28KT 10SM SCT035 M01/M08 A2983 RMK AO2 PK WND 31028/1648 SLP108 T10061083
KMDT 141556Z 32015KT 10SM CLR M01/M08 A2982 RMK AO2 SLP102 T10111078